sensor_id;sensor_type;location;lat;lon;timestamp;pressure;altitude;pressure_sealevel;temperature;humidity
46448;BME280;32145;50.390;30.778;2022-10-16T00:01:48;101223.22;;;1.52;72.18
46448;BME280;32145;50.390;30.778;2022-10-16T00:04:34;101223.34;;;1.50;72.16
46448;BME280;32145;50.390;30.778;2022-10-16T00:07:19;101222.78;;;1.47;72.21
46448;BME280;32145;50.390;30.778;2022-10-16T00:10:04;101219.41;;;1.45;72.02
46448;BME280;32145;50.390;30.778;2022-10-16T00:12:49;101218.69;;;1.42;71.98
46448;BME280;32145;50.390;30.778;2022-10-16T00:15:33;101220.69;;;1.40;71.98
46448;BME280;32145;50.390;30.778;2022-10-16T00:18:18;101224.63;;;1.36;71.78
46448;BME280;32145;50.390;30.778;2022-10-16T00:21:03;101222.94;;;1.35;72.01
46448;BME280;32145;50.390;30.778;2022-10-16T00:23:51;101228.53;;;1.32;72.04
46448;BME280;32145;50.390;30.778;2022-10-16T00:26:36;101224.47;;;1.28;71.92
46448;BME280;32145;50.390;30.778;2022-10-16T00:29:21;101227.97;;;1.28;72.16
46448;BME280;32145;50.390;30.778;2022-10-16T00:32:05;101225.44;;;1.27;72.16
46448;BME280;32145;50.390;30.778;2022-10-16T00:34:49;101224.00;;;1.23;72.38
46448;BME280;32145;50.390;30.778;2022-10-16T00:37:33;101229.34;;;1.23;72.41
46448;BME280;32145;50.390;30.778;2022-10-16T00:40:18;101228.53;;;1.22;72.69
46448;BME280;32145;50.390;30.778;2022-10-16T00:43:02;101229.34;;;1.23;72.39
46448;BME280;32145;50.390;30.778;2022-10-16T00:45:46;101241.03;;;1.22;72.29
46448;BME280;32145;50.390;30.778;2022-10-16T00:48:30;101238.50;;;1.20;72.46
46448;BME280;32145;50.390;30.778;2022-10-16T00:51:15;101238.63;;;1.19;72.39
46448;BME280;32145;50.390;30.778;2022-10-16T00:54:04;101240.34;;;1.20;72.56
46448;BME280;32145;50.390;30.778;2022-10-16T00:56:50;101239.34;;;1.21;72.67
46448;BME280;32145;50.390;30.778;2022-10-16T00:59:36;101249.47;;;1.17;72.46
46448;BME280;32145;50.390;30.778;2022-10-16T01:02:21;101242.56;;;1.14;72.69
46448;BME280;32145;50.390;30.778;2022-10-16T01:05:05;101243.97;;;1.09;72.74
46448;BME280;32145;50.390;30.778;2022-10-16T01:07:56;101250.41;;;1.06;72.52
46448;BME280;32145;50.390;30.778;2022-10-16T01:10:50;101246.34;;;1.02;72.78
46448;BME280;32145;50.390;30.778;2022-10-16T01:13:41;101241.97;;;1.01;72.64
46448;BME280;32145;50.390;30.778;2022-10-16T01:16:30;101244.22;;;0.96;72.81
46448;BME280;32145;50.390;30.778;2022-10-16T01:19:30;101236.34;;;0.94;73.03
46448;BME280;32145;50.390;30.778;2022-10-16T01:22:16;101241.97;;;0.91;72.75
46448;BME280;32145;50.390;30.778;2022-10-16T01:25:06;101249.25;;;0.89;72.79
46448;BME280;32145;50.390;30.778;2022-10-16T01:27:54;101250.38;;;0.86;72.86
46448;BME280;32145;50.390;30.778;2022-10-16T01:30:41;101249.38;;;0.87;72.89
46448;BME280;32145;50.390;30.778;2022-10-16T01:33:30;101252.03;;;0.87;72.93
46448;BME280;32145;50.390;30.778;2022-10-16T01:36:21;101254.03;;;0.85;72.69
46448;BME280;32145;50.390;30.778;2022-10-16T01:39:09;101248.94;;;0.82;72.64
46448;BME280;32145;50.390;30.778;2022-10-16T01:41:59;101263.28;;;0.81;72.73
46448;BME280;32145;50.390;30.778;2022-10-16T01:44:47;101264.53;;;0.77;72.70
46448;BME280;32145;50.390;30.778;2022-10-16T01:47:32;101263.13;;;0.73;72.62
46448;BME280;32145;50.390;30.778;2022-10-16T01:50:19;101267.03;;;0.69;72.63
46448;BME280;32145;50.390;30.778;2022-10-16T01:53:04;101266.31;;;0.67;72.50
46448;BME280;32145;50.390;30.778;2022-10-16T01:55:50;101266.31;;;0.67;72.79
46448;BME280;32145;50.390;30.778;2022-10-16T01:58:42;101268.28;;;0.64;72.41
46448;BME280;32145;50.390;30.778;2022-10-16T02:01:31;101263.91;;;0.63;72.68
46448;BME280;32145;50.390;30.778;2022-10-16T02:04:19;101265.88;;;0.61;72.63
46448;BME280;32145;50.390;30.778;2022-10-16T02:07:04;101269.97;;;0.66;72.55
46448;BME280;32145;50.390;30.778;2022-10-16T02:09:50;101270.69;;;0.68;72.92
46448;BME280;32145;50.390;30.778;2022-10-16T02:12:36;101269.09;;;0.65;72.77
46448;BME280;32145;50.390;30.778;2022-10-16T02:15:22;101279.09;;;0.63;72.73
46448;BME280;32145;50.390;30.778;2022-10-16T02:18:09;101280.34;;;0.59;72.76
46448;BME280;32145;50.390;30.778;2022-10-16T02:20:58;101281.31;;;0.58;72.83
46448;BME280;32145;50.390;30.778;2022-10-16T02:23:44;101280.22;;;0.60;73.05
46448;BME280;32145;50.390;30.778;2022-10-16T02:26:35;101281.72;;;0.53;72.91
46448;BME280;32145;50.390;30.778;2022-10-16T02:29:24;101279.44;;;0.48;72.87
46448;BME280;32145;50.390;30.778;2022-10-16T02:32:10;101279.69;;;0.45;72.80
46448;BME280;32145;50.390;30.778;2022-10-16T02:34:58;101286.00;;;0.44;72.95
46448;BME280;32145;50.390;30.778;2022-10-16T02:37:44;101284.44;;;0.42;72.79
46448;BME280;32145;50.390;30.778;2022-10-16T02:40:30;101294.41;;;0.40;73.00
46448;BME280;32145;50.390;30.778;2022-10-16T02:43:15;101286.56;;;0.38;73.18
46448;BME280;32145;50.390;30.778;2022-10-16T02:46:00;101293.44;;;0.41;73.22
46448;BME280;32145;50.390;30.778;2022-10-16T02:48:44;101297.78;;;0.42;73.10
46448;BME280;32145;50.390;30.778;2022-10-16T02:51:29;101298.91;;;0.39;73.00
46448;BME280;32145;50.390;30.778;2022-10-16T02:54:14;101297.34;;;0.36;72.94
46448;BME280;32145;50.390;30.778;2022-10-16T02:56:57;101300.03;;;0.36;73.17
46448;BME280;32145;50.390;30.778;2022-10-16T02:59:42;101296.13;;;0.41;73.16
46448;BME280;32145;50.390;30.778;2022-10-16T03:02:25;101293.44;;;0.41;73.26
46448;BME280;32145;50.390;30.778;2022-10-16T03:05:10;101313.22;;;0.38;73.20
46448;BME280;32145;50.390;30.778;2022-10-16T03:07:56;101302.94;;;0.33;73.17
46448;BME280;32145;50.390;30.778;2022-10-16T03:10:39;101305.75;;;0.32;73.27
46448;BME280;32145;50.390;30.778;2022-10-16T03:13:24;101309.66;;;0.28;72.81
46448;BME280;32145;50.390;30.778;2022-10-16T03:16:08;101304.31;;;0.28;73.11
46448;BME280;32145;50.390;30.778;2022-10-16T03:18:52;101315.22;;;0.24;73.07
46448;BME280;32145;50.390;30.778;2022-10-16T03:21:36;101316.34;;;0.22;73.17
46448;BME280;32145;50.390;30.778;2022-10-16T03:24:22;101319.88;;;0.22;72.87
46448;BME280;32145;50.390;30.778;2022-10-16T03:27:06;101314.66;;;0.21;73.13
46448;BME280;32145;50.390;30.778;2022-10-16T03:29:51;101311.00;;;0.22;73.33
46448;BME280;32145;50.390;30.778;2022-10-16T03:32:34;101318.16;;;0.21;72.95
46448;BME280;32145;50.390;30.778;2022-10-16T03:35:18;101316.59;;;0.19;73.22
46448;BME280;32145;50.390;30.778;2022-10-16T03:38:02;101330.34;;;0.14;72.98
46448;BME280;32145;50.390;30.778;2022-10-16T03:40:47;101331.16;;;0.15;73.05
46448;BME280;32145;50.390;30.778;2022-10-16T03:43:32;101327.81;;;0.12;73.08
46448;BME280;32145;50.390;30.778;2022-10-16T03:46:16;101328.63;;;0.13;73.09
46448;BME280;32145;50.390;30.778;2022-10-16T03:49:00;101329.72;;;0.10;72.91
46448;BME280;32145;50.390;30.778;2022-10-16T03:51:44;101329.84;;;0.09;73.23
46448;BME280;32145;50.390;30.778;2022-10-16T03:54:28;101329.03;;;0.08;73.28
46448;BME280;32145;50.390;30.778;2022-10-16T03:57:13;101336.31;;;0.06;73.09
46448;BME280;32145;50.390;30.778;2022-10-16T03:59:57;101326.38;;;0.08;72.94
46448;BME280;32145;50.390;30.778;2022-10-16T04:02:41;101337.59;;;0.12;72.93
46448;BME280;32145;50.390;30.778;2022-10-16T04:05:25;101324.03;;;0.15;73.12
46448;BME280;32145;50.390;30.778;2022-10-16T04:08:10;101323.28;;;0.13;72.92
46448;BME280;32145;50.390;30.778;2022-10-16T04:10:53;101328.06;;;0.09;73.20
46448;BME280;32145;50.390;30.778;2022-10-16T04:13:39;101326.63;;;0.05;72.86
46448;BME280;32145;50.390;30.778;2022-10-16T04:16:23;101327.72;;;0.03;72.74
46448;BME280;32145;50.390;30.778;2022-10-16T04:19:08;101327.97;;;-0.01;72.78
46448;BME280;32145;50.390;30.778;2022-10-16T04:21:52;101328.97;;;-0.02;72.72
46448;BME280;32145;50.390;30.778;2022-10-16T04:24:36;101337.06;;;-0.03;72.90
46448;BME280;32145;50.390;30.778;2022-10-16T04:27:20;101340.56;;;-0.03;73.02
46448;BME280;32145;50.390;30.778;2022-10-16T04:30:07;101336.09;;;-0.02;73.03
46448;BME280;32145;50.390;30.778;2022-10-16T04:32:52;101333.31;;;-0.01;73.01
46448;BME280;32145;50.390;30.778;2022-10-16T04:35:36;101337.28;;;0.05;72.99
46448;BME280;32145;50.390;30.778;2022-10-16T04:38:20;101338.59;;;0.11;73.32
46448;BME280;32145;50.390;30.778;2022-10-16T04:41:04;101343.81;;;0.12;73.27
46448;BME280;32145;50.390;30.778;2022-10-16T04:43:49;101350.69;;;0.15;73.30
46448;BME280;32145;50.390;30.778;2022-10-16T04:46:34;101352.38;;;0.16;73.20
46448;BME280;32145;50.390;30.778;2022-10-16T04:49:18;101366.44;;;0.18;73.32
46448;BME280;32145;50.390;30.778;2022-10-16T04:52:02;101363.38;;;0.23;73.34
46448;BME280;32145;50.390;30.778;2022-10-16T04:54:46;101362.13;;;0.27;73.07
46448;BME280;32145;50.390;30.778;2022-10-16T04:57:31;101368.91;;;0.31;73.28
46448;BME280;32145;50.390;30.778;2022-10-16T05:00:15;101373.28;;;0.32;73.11
46448;BME280;32145;50.390;30.778;2022-10-16T05:03:01;101386.09;;;0.38;72.95
46448;BME280;32145;50.390;30.778;2022-10-16T05:05:45;101381.09;;;0.45;73.01
46448;BME280;32145;50.390;30.778;2022-10-16T05:08:29;101381.16;;;0.55;73.10
46448;BME280;32145;50.390;30.778;2022-10-16T05:11:13;101380.38;;;0.64;73.11
46448;BME280;32145;50.390;30.778;2022-10-16T05:13:57;101383.00;;;0.76;72.94
46448;BME280;32145;50.390;30.778;2022-10-16T05:16:41;101399.91;;;0.86;72.79
46448;BME280;32145;50.390;30.778;2022-10-16T05:19:27;101394.59;;;0.96;72.82
46448;BME280;32145;50.390;30.778;2022-10-16T05:22:11;101396.09;;;1.10;72.63
46448;BME280;32145;50.390;30.778;2022-10-16T05:24:54;101403.75;;;1.25;72.85
46448;BME280;32145;50.390;30.778;2022-10-16T05:27:38;101407.75;;;1.40;72.79
46448;BME280;32145;50.390;30.778;2022-10-16T05:30:25;101408.34;;;1.54;72.65
46448;BME280;32145;50.390;30.778;2022-10-16T05:33:09;101414.31;;;1.67;72.78
46448;BME280;32145;50.390;30.778;2022-10-16T05:35:54;101426.59;;;1.80;72.50
46448;BME280;32145;50.390;30.778;2022-10-16T05:38:38;101425.47;;;1.92;72.43
46448;BME280;32145;50.390;30.778;2022-10-16T05:41:22;101425.34;;;2.04;72.49
46448;BME280;32145;50.390;30.778;2022-10-16T05:44:06;101436.63;;;2.17;72.59
46448;BME280;32145;50.390;30.778;2022-10-16T05:46:50;101437.22;;;2.31;72.34
46448;BME280;32145;50.390;30.778;2022-10-16T05:49:34;101447.47;;;2.45;72.62
46448;BME280;32145;50.390;30.778;2022-10-16T05:52:20;101454.25;;;2.60;72.52
46448;BME280;32145;50.390;30.778;2022-10-16T05:55:04;101456.34;;;2.76;72.59
46448;BME280;32145;50.390;30.778;2022-10-16T05:57:48;101457.59;;;2.91;72.51
46448;BME280;32145;50.390;30.778;2022-10-16T06:00:32;101459.66;;;3.07;71.90
46448;BME280;32145;50.390;30.778;2022-10-16T06:03:16;101462.88;;;3.21;72.11
46448;BME280;32145;50.390;30.778;2022-10-16T06:06:07;101463.25;;;3.36;72.68
46448;BME280;32145;50.390;30.778;2022-10-16T06:08:54;101470.13;;;3.48;72.26
46448;BME280;32145;50.390;30.778;2022-10-16T06:11:38;101469.94;;;3.60;71.41
46448;BME280;32145;50.390;30.778;2022-10-16T06:14:22;101474.13;;;3.72;71.58
46448;BME280;32145;50.390;30.778;2022-10-16T06:17:06;101472.78;;;3.86;71.23
46448;BME280;32145;50.390;30.778;2022-10-16T06:19:50;101476.78;;;4.00;70.97
46448;BME280;32145;50.390;30.778;2022-10-16T06:22:37;101478.97;;;4.15;70.71
46448;BME280;32145;50.390;30.778;2022-10-16T06:25:22;101489.50;;;4.27;70.34
46448;BME280;32145;50.390;30.778;2022-10-16T06:28:06;101489.13;;;4.40;70.24
46448;BME280;32145;50.390;30.778;2022-10-16T06:30:58;101495.09;;;4.51;70.53
46448;BME280;32145;50.390;30.778;2022-10-16T06:33:42;101498.56;;;4.62;69.82
46448;BME280;32145;50.390;30.778;2022-10-16T06:36:26;101495.31;;;4.76;69.35
46448;BME280;32145;50.390;30.778;2022-10-16T06:39:10;101493.09;;;4.90;68.94
46448;BME280;32145;50.390;30.778;2022-10-16T06:41:56;101499.75;;;5.04;68.79
46448;BME280;32145;50.390;30.778;2022-10-16T06:44:39;101498.94;;;5.12;68.29
46448;BME280;32145;50.390;30.778;2022-10-16T06:47:24;101501.00;;;5.18;68.64
46448;BME280;32145;50.390;30.778;2022-10-16T06:50:08;101497.69;;;5.24;68.57
46448;BME280;32145;50.390;30.778;2022-10-16T06:52:52;101502.78;;;5.36;68.47
46448;BME280;32145;50.390;30.778;2022-10-16T06:55:36;101499.84;;;5.47;68.14
46448;BME280;32145;50.390;30.778;2022-10-16T06:58:21;101501.94;;;5.62;68.05
46448;BME280;32145;50.390;30.778;2022-10-16T07:01:06;101497.94;;;5.66;67.84
46448;BME280;32145;50.390;30.778;2022-10-16T07:03:51;101501.16;;;5.78;67.84
46448;BME280;32145;50.390;30.778;2022-10-16T07:06:35;101499.03;;;5.90;67.44
46448;BME280;32145;50.390;30.778;2022-10-16T07:09:19;101492.66;;;5.99;67.54
46448;BME280;32145;50.390;30.778;2022-10-16T07:12:04;101498.13;;;6.16;67.10
46448;BME280;32145;50.390;30.778;2022-10-16T07:14:49;101503.56;;;6.32;66.44
46448;BME280;32145;50.390;30.778;2022-10-16T07:17:33;101497.53;;;6.47;66.37
46448;BME280;32145;50.390;30.778;2022-10-16T07:20:17;101500.59;;;6.61;65.39
46448;BME280;32145;50.390;30.778;2022-10-16T07:23:02;101504.31;;;6.76;65.54
46448;BME280;32145;50.390;30.778;2022-10-16T07:25:45;101511.38;;;6.86;64.87
46448;BME280;32145;50.390;30.778;2022-10-16T07:28:37;101503.94;;;6.88;64.61
46448;BME280;32145;50.390;30.778;2022-10-16T07:31:23;101513.03;;;7.03;64.56
46448;BME280;32145;50.390;30.778;2022-10-16T07:34:07;101517.09;;;7.16;64.02
46448;BME280;32145;50.390;30.778;2022-10-16T07:36:51;101514.22;;;7.26;63.91
46448;BME280;32145;50.390;30.778;2022-10-16T07:39:35;101513.53;;;7.32;63.84
46448;BME280;32145;50.390;30.778;2022-10-16T07:42:19;101511.66;;;7.41;63.58
46448;BME280;32145;50.390;30.778;2022-10-16T07:45:04;101516.16;;;7.57;63.30
46448;BME280;32145;50.390;30.778;2022-10-16T07:47:50;101518.63;;;7.75;62.45
46448;BME280;32145;50.390;30.778;2022-10-16T07:50:33;101514.72;;;7.86;62.37
46448;BME280;32145;50.390;30.778;2022-10-16T07:53:17;101516.19;;;7.97;61.56
46448;BME280;32145;50.390;30.778;2022-10-16T07:56:03;101513.09;;;8.08;61.27
46448;BME280;32145;50.390;30.778;2022-10-16T07:58:50;101510.34;;;8.17;60.99
46448;BME280;32145;50.390;30.778;2022-10-16T08:01:34;101507.25;;;8.28;60.70
46448;BME280;32145;50.390;30.778;2022-10-16T08:04:19;101521.69;;;8.44;60.43
46448;BME280;32145;50.390;30.778;2022-10-16T08:07:03;101519.28;;;8.49;59.58
46448;BME280;32145;50.390;30.778;2022-10-16T08:09:49;101516.03;;;8.62;59.67
46448;BME280;32145;50.390;30.778;2022-10-16T08:12:33;101516.06;;;8.77;59.23
46448;BME280;32145;50.390;30.778;2022-10-16T08:15:17;101503.78;;;8.89;58.61
46448;BME280;32145;50.390;30.778;2022-10-16T08:18:04;101505.03;;;9.02;58.45
46448;BME280;32145;50.390;30.778;2022-10-16T08:20:55;101512.06;;;9.11;57.79
46448;BME280;32145;50.390;30.778;2022-10-16T08:23:39;101509.00;;;9.14;57.77
46448;BME280;32145;50.390;30.778;2022-10-16T08:26:23;101512.16;;;9.18;57.42
46448;BME280;32145;50.390;30.778;2022-10-16T08:29:07;101509.75;;;9.23;57.20
46448;BME280;32145;50.390;30.778;2022-10-16T08:31:51;101504.81;;;9.27;56.73
46448;BME280;32145;50.390;30.778;2022-10-16T08:34:35;101505.47;;;9.29;56.52
46448;BME280;32145;50.390;30.778;2022-10-16T08:37:20;101509.03;;;9.30;56.30
46448;BME280;32145;50.390;30.778;2022-10-16T08:40:07;101500.63;;;9.39;56.55
46448;BME280;32145;50.390;30.778;2022-10-16T08:43:19;101503.44;;;9.46;56.24
46448;BME280;32145;50.390;30.778;2022-10-16T08:49:14;101511.94;;;9.58;55.93
46448;BME280;32145;50.390;30.778;2022-10-16T08:51:58;101503.53;;;9.68;55.25
46448;BME280;32145;50.390;30.778;2022-10-16T08:54:47;101505.66;;;9.73;54.88
46448;BME280;32145;50.390;30.778;2022-10-16T08:57:33;101504.09;;;9.63;54.34
46448;BME280;32145;50.390;30.778;2022-10-16T09:00:18;101504.09;;;9.63;54.65
46448;BME280;32145;50.390;30.778;2022-10-16T09:03:10;101511.44;;;9.70;54.09
46448;BME280;32145;50.390;30.778;2022-10-16T09:06:07;101522.59;;;9.75;53.43
46448;BME280;32145;50.390;30.778;2022-10-16T09:09:04;101510.53;;;9.77;52.83
46448;BME280;32145;50.390;30.778;2022-10-16T09:11:58;101512.28;;;9.85;53.28
46448;BME280;32145;50.390;30.778;2022-10-16T09:15:01;101513.22;;;9.92;53.17
46448;BME280;32145;50.390;30.778;2022-10-16T09:17:53;101514.50;;;9.97;53.35
46448;BME280;32145;50.390;30.778;2022-10-16T09:20:47;101505.28;;;9.91;52.32
46448;BME280;32145;50.390;30.778;2022-10-16T09:23:35;101499.75;;;9.99;53.10
46448;BME280;32145;50.390;30.778;2022-10-16T09:26:20;101501.53;;;10.07;52.94
46448;BME280;32145;50.390;30.778;2022-10-16T09:29:05;101495.91;;;9.93;51.56
46448;BME280;32145;50.390;30.778;2022-10-16T09:31:49;101486.50;;;9.89;51.40
46448;BME280;32145;50.390;30.778;2022-10-16T09:34:36;101494.91;;;9.95;52.54
46448;BME280;32145;50.390;30.778;2022-10-16T09:37:24;101505.44;;;10.04;52.03
46448;BME280;32145;50.390;30.778;2022-10-16T09:40:12;101505.53;;;10.11;52.03
46448;BME280;32145;50.390;30.778;2022-10-16T09:43:02;101499.72;;;10.14;51.79
46448;BME280;32145;50.390;30.778;2022-10-16T09:45:57;101495.97;;;10.15;51.61
46448;BME280;32145;50.390;30.778;2022-10-16T09:48:44;101496.25;;;10.21;51.43
46448;BME280;32145;50.390;30.778;2022-10-16T09:51:32;101501.03;;;10.18;51.68
46448;BME280;32145;50.390;30.778;2022-10-16T09:54:18;101494.75;;;10.18;51.75
46448;BME280;32145;50.390;30.778;2022-10-16T09:57:06;101493.16;;;10.24;51.66
46448;BME280;32145;50.390;30.778;2022-10-16T09:59:53;101486.69;;;10.25;52.21
46448;BME280;32145;50.390;30.778;2022-10-16T10:02:38;101486.06;;;10.23;51.70
46448;BME280;32145;50.390;30.778;2022-10-16T10:05:25;101480.91;;;10.28;51.90
46448;BME280;32145;50.390;30.778;2022-10-16T10:08:15;101480.78;;;10.36;51.70
46448;BME280;32145;50.390;30.778;2022-10-16T10:11:01;101470.41;;;10.40;51.20
46448;BME280;32145;50.390;30.778;2022-10-16T10:13:45;101465.81;;;10.40;51.22
46448;BME280;32145;50.390;30.778;2022-10-16T10:16:30;101467.13;;;10.44;51.70
46448;BME280;32145;50.390;30.778;2022-10-16T10:19:16;101469.88;;;10.51;50.56
46448;BME280;32145;50.390;30.778;2022-10-16T10:22:01;101462.16;;;10.48;51.05
46448;BME280;32145;50.390;30.778;2022-10-16T10:24:46;101455.13;;;10.54;51.46
46448;BME280;32145;50.390;30.778;2022-10-16T10:27:43;101460.59;;;10.61;50.09
46448;BME280;32145;50.390;30.778;2022-10-16T10:30:38;101462.75;;;10.65;50.34
46448;BME280;32145;50.390;30.778;2022-10-16T10:33:30;101449.38;;;10.64;50.35
46448;BME280;32145;50.390;30.778;2022-10-16T10:36:25;101439.72;;;10.61;48.83
46448;BME280;32145;50.390;30.778;2022-10-16T10:39:16;101433.94;;;10.64;47.95
46448;BME280;32145;50.390;30.778;2022-10-16T10:42:11;101433.41;;;10.76;48.77
46448;BME280;32145;50.390;30.778;2022-10-16T10:45:18;101431.34;;;10.78;48.77
46448;BME280;32145;50.390;30.778;2022-10-16T10:48:16;101428.16;;;10.74;48.58
46448;BME280;32145;50.390;30.778;2022-10-16T10:51:04;101427.78;;;10.77;48.19
46448;BME280;32145;50.390;30.778;2022-10-16T10:53:57;101428.63;;;10.78;48.09
46448;BME280;32145;50.390;30.778;2022-10-16T10:56:51;101433.53;;;10.89;47.79
46448;BME280;32145;50.390;30.778;2022-10-16T11:02:58;101428.38;;;11.01;47.50
46448;BME280;32145;50.390;30.778;2022-10-16T11:05:49;101427.94;;;10.98;46.70
46448;BME280;32145;50.390;30.778;2022-10-16T11:08:36;101424.59;;;11.02;47.13
46448;BME280;32145;50.390;30.778;2022-10-16T11:11:29;101426.59;;;11.15;46.82
46448;BME280;32145;50.390;30.778;2022-10-16T11:14:19;101434.72;;;11.15;46.44
46448;BME280;32145;50.390;30.778;2022-10-16T11:17:10;101436.84;;;11.20;46.33
46448;BME280;32145;50.390;30.778;2022-10-16T11:19:59;101426.00;;;11.20;45.59
46448;BME280;32145;50.390;30.778;2022-10-16T11:22:50;101429.13;;;11.24;45.90
46448;BME280;32145;50.390;30.778;2022-10-16T11:25:35;101432.91;;;11.23;46.35
46448;BME280;32145;50.390;30.778;2022-10-16T11:28:23;101429.78;;;11.26;46.43
46448;BME280;32145;50.390;30.778;2022-10-16T11:31:14;101436.31;;;11.38;46.72
46448;BME280;32145;50.390;30.778;2022-10-16T11:34:01;101452.09;;;11.56;46.86
46448;BME280;32145;50.390;30.778;2022-10-16T11:36:50;101457.31;;;11.58;45.93
46448;BME280;32145;50.390;30.778;2022-10-16T11:39:38;101445.81;;;11.56;46.14
46448;BME280;32145;50.390;30.778;2022-10-16T11:42:27;101444.53;;;11.52;44.52
46448;BME280;32145;50.390;30.778;2022-10-16T11:45:23;101447.13;;;11.67;44.59
46448;BME280;32145;50.390;30.778;2022-10-16T11:48:18;101445.69;;;11.78;44.22
46448;BME280;32145;50.390;30.778;2022-10-16T11:51:09;101449.03;;;11.80;44.29
46448;BME280;32145;50.390;30.778;2022-10-16T11:53:59;101441.75;;;11.87;44.35
46448;BME280;32145;50.390;30.778;2022-10-16T11:56:48;101445.16;;;12.03;44.00
46448;BME280;32145;50.390;30.778;2022-10-16T11:59:41;101446.00;;;12.03;43.68
46448;BME280;32145;50.390;30.778;2022-10-16T12:02:40;101441.00;;;12.07;43.62
46448;BME280;32145;50.390;30.778;2022-10-16T12:05:34;101447.31;;;12.14;43.87
46448;BME280;32145;50.390;30.778;2022-10-16T12:08:19;101450.22;;;12.13;42.58
46448;BME280;32145;50.390;30.778;2022-10-16T12:11:08;101456.94;;;12.17;42.76
46448;BME280;32145;50.390;30.778;2022-10-16T12:14:04;101443.53;;;12.15;42.52
46448;BME280;32145;50.390;30.778;2022-10-16T12:16:54;101444.38;;;12.16;42.90
46448;BME280;32145;50.390;30.778;2022-10-16T12:19:39;101442.53;;;12.23;43.11
46448;BME280;32145;50.390;30.778;2022-10-16T12:22:23;101449.84;;;12.22;42.79
46448;BME280;32145;50.390;30.778;2022-10-16T12:25:20;101452.16;;;12.26;42.18
46448;BME280;32145;50.390;30.778;2022-10-16T12:28:07;101449.44;;;12.32;42.90
46448;BME280;32145;50.390;30.778;2022-10-16T12:31:03;101453.22;;;12.38;42.68
46448;BME280;32145;50.390;30.778;2022-10-16T12:33:57;101459.50;;;12.45;42.13
46448;BME280;32145;50.390;30.778;2022-10-16T12:36:43;101452.81;;;12.48;42.51
46448;BME280;32145;50.390;30.778;2022-10-16T12:39:28;101444.41;;;12.36;42.77
46448;BME280;32145;50.390;30.778;2022-10-16T12:42:21;101442.75;;;12.42;42.62
46448;BME280;32145;50.390;30.778;2022-10-16T12:45:24;101452.41;;;12.58;42.29
46448;BME280;32145;50.390;30.778;2022-10-16T12:48:20;101454.06;;;12.66;42.09
46448;BME280;32145;50.390;30.778;2022-10-16T12:51:11;101458.91;;;12.57;41.97
46448;BME280;32145;50.390;30.778;2022-10-16T12:54:01;101451.13;;;12.60;41.66
46448;BME280;32145;50.390;30.778;2022-10-16T12:59:57;101460.75;;;12.63;42.41
46448;BME280;32145;50.390;30.778;2022-10-16T13:02:58;101459.09;;;12.62;42.04
46448;BME280;32145;50.390;30.778;2022-10-16T13:05:56;101456.56;;;12.67;42.07
46448;BME280;32145;50.390;30.778;2022-10-16T13:08:54;101460.78;;;12.76;42.32
46448;BME280;32145;50.390;30.778;2022-10-16T13:11:56;101457.00;;;12.71;41.80
46448;BME280;32145;50.390;30.778;2022-10-16T13:14:54;101444.03;;;12.66;42.35
46448;BME280;32145;50.390;30.778;2022-10-16T13:17:47;101446.13;;;12.71;42.20
46448;BME280;32145;50.390;30.778;2022-10-16T13:20:46;101444.66;;;12.68;42.66
46448;BME280;32145;50.390;30.778;2022-10-16T13:23:40;101440.88;;;12.56;42.83
46448;BME280;32145;50.390;30.778;2022-10-16T13:26:33;101439.41;;;12.46;43.00
46448;BME280;32145;50.390;30.778;2022-10-16T13:29:21;101439.81;;;12.43;43.25
46448;BME280;32145;50.390;30.778;2022-10-16T13:32:09;101442.34;;;12.45;42.95
46448;BME280;32145;50.390;30.778;2022-10-16T13:34:54;101435.44;;;12.49;43.32
46448;BME280;32145;50.390;30.778;2022-10-16T13:37:38;101437.75;;;12.52;43.35
46448;BME280;32145;50.390;30.778;2022-10-16T13:40:23;101433.97;;;12.53;43.33
46448;BME280;32145;50.390;30.778;2022-10-16T13:43:08;101435.44;;;12.56;43.32
46448;BME280;32145;50.390;30.778;2022-10-16T13:45:56;101423.94;;;12.54;43.14
46448;BME280;32145;50.390;30.778;2022-10-16T13:48:41;101420.78;;;12.43;43.43
46448;BME280;32145;50.390;30.778;2022-10-16T13:51:29;101417.84;;;12.31;43.34
46448;BME280;32145;50.390;30.778;2022-10-16T13:54:14;101410.72;;;12.23;44.02
46448;BME280;32145;50.390;30.778;2022-10-16T13:57:04;101409.69;;;12.24;43.71
46448;BME280;32145;50.390;30.778;2022-10-16T13:59:48;101402.97;;;12.20;43.50
46448;BME280;32145;50.390;30.778;2022-10-16T14:02:38;101394.19;;;12.11;43.44
46448;BME280;32145;50.390;30.778;2022-10-16T14:05:24;101395.84;;;12.06;44.23
46448;BME280;32145;50.390;30.778;2022-10-16T14:08:11;101391.63;;;12.03;44.34
46448;BME280;32145;50.390;30.778;2022-10-16T14:10:57;101388.25;;;11.94;44.77
46448;BME280;32145;50.390;30.778;2022-10-16T14:13:44;101391.38;;;11.84;44.61
46448;BME280;32145;50.390;30.778;2022-10-16T14:16:30;101394.47;;;11.75;44.96
46448;BME280;32145;50.390;30.778;2022-10-16T14:19:19;101401.53;;;11.62;45.04
46448;BME280;32145;50.390;30.778;2022-10-16T14:22:24;101397.09;;;11.47;45.23
46448;BME280;32145;50.390;30.778;2022-10-16T14:25:23;101405.16;;;11.27;45.93
46448;BME280;32145;50.390;30.778;2022-10-16T14:28:16;101413.16;;;11.07;46.34
46448;BME280;32145;50.390;30.778;2022-10-16T14:31:02;101414.06;;;10.86;46.72
46448;BME280;32145;50.390;30.778;2022-10-16T14:33:47;101414.94;;;10.64;47.40
46448;BME280;32145;50.390;30.778;2022-10-16T14:36:33;101423.56;;;10.46;48.13
46448;BME280;32145;50.390;30.778;2022-10-16T14:39:19;101422.31;;;10.27;48.60